sensor_id;sensor_type;location;lat;lon;timestamp;P1;durP1;ratioP1;P2;durP2;ratioP2
9228;SDS011;4649;42.644;23.284;2023-06-24T04:23:55;12.13;;;10.93;;
9228;SDS011;4649;42.644;23.284;2023-06-24T04:29:02;10.60;;;9.70;;
9228;SDS011;4649;42.644;23.284;2023-06-24T04:31:39;10.27;;;9.47;;
9228;SDS011;4649;42.644;23.284;2023-06-24T04:38:01;10.63;;;9.53;;
9228;SDS011;4649;42.644;23.284;2023-06-24T04:41:13;11.70;;;9.07;;
9228;SDS011;4649;42.644;23.284;2023-06-24T04:44:15;9.60;;;9.00;;
9228;SDS011;4649;42.644;23.284;2023-06-24T04:47:04;10.13;;;9.23;;
9228;SDS011;4649;42.644;23.284;2023-06-24T04:53:10;10.07;;;9.17;;
9228;SDS011;4649;42.644;23.284;2023-06-24T04:55:50;10.30;;;9.17;;
9228;SDS011;4649;42.644;23.284;2023-06-24T05:29:35;12.30;;;9.63;;
9228;SDS011;4649;42.644;23.284;2023-06-24T05:32:15;10.47;;;9.67;;
9228;SDS011;4649;42.644;23.284;2023-06-24T05:34:48;11.23;;;9.93;;
9228;SDS011;4649;42.644;23.284;2023-06-24T05:37:16;24.50;;;9.57;;
9228;SDS011;4649;42.644;23.284;2023-06-24T05:39:46;13.77;;;9.33;;
9228;SDS011;4649;42.644;23.284;2023-06-24T05:42:14;10.10;;;9.10;;
9228;SDS011;4649;42.644;23.284;2023-06-24T05:44:43;10.07;;;9.10;;
9228;SDS011;4649;42.644;23.284;2023-06-24T05:47:10;10.60;;;9.77;;
9228;SDS011;4649;42.644;23.284;2023-06-24T05:49:37;10.07;;;9.37;;
9228;SDS011;4649;42.644;23.284;2023-06-24T05:52:05;9.47;;;8.67;;
9228;SDS011;4649;42.644;23.284;2023-06-24T05:54:33;11.00;;;10.07;;
9228;SDS011;4649;42.644;23.284;2023-06-24T05:57:01;13.97;;;9.80;;
9228;SDS011;4649;42.644;23.284;2023-06-24T05:59:31;10.83;;;9.73;;
9228;SDS011;4649;42.644;23.284;2023-06-24T06:02:05;10.13;;;9.37;;
9228;SDS011;4649;42.644;23.284;2023-06-24T06:04:37;16.17;;;9.50;;
9228;SDS011;4649;42.644;23.284;2023-06-24T06:07:05;10.00;;;8.60;;
9228;SDS011;4649;42.644;23.284;2023-06-24T06:09:39;10.10;;;9.27;;
9228;SDS011;4649;42.644;23.284;2023-06-24T06:12:08;9.87;;;9.10;;
9228;SDS011;4649;42.644;23.284;2023-06-24T06:14:35;10.00;;;9.27;;
9228;SDS011;4649;42.644;23.284;2023-06-24T06:17:23;9.93;;;9.13;;
9228;SDS011;4649;42.644;23.284;2023-06-24T06:20:09;8.83;;;8.03;;
9228;SDS011;4649;42.644;23.284;2023-06-24T06:22:37;8.10;;;7.50;;
9228;SDS011;4649;42.644;23.284;2023-06-24T06:25:37;8.77;;;7.93;;
9228;SDS011;4649;42.644;23.284;2023-06-24T06:28:05;7.93;;;7.43;;
9228;SDS011;4649;42.644;23.284;2023-06-24T06:30:32;8.70;;;7.32;;
9228;SDS011;4649;42.644;23.284;2023-06-24T06:33:01;9.02;;;8.20;;
9228;SDS011;4649;42.644;23.284;2023-06-24T06:35:30;7.78;;;7.18;;
9228;SDS011;4649;42.644;23.284;2023-06-24T06:37:57;9.20;;;7.60;;
9228;SDS011;4649;42.644;23.284;2023-06-24T06:40:27;8.13;;;7.00;;
9228;SDS011;4649;42.644;23.284;2023-06-24T06:42:55;8.57;;;7.90;;
9228;SDS011;4649;42.644;23.284;2023-06-24T06:45:26;8.73;;;7.80;;
9228;SDS011;4649;42.644;23.284;2023-06-24T06:47:55;8.38;;;7.38;;
9228;SDS011;4649;42.644;23.284;2023-06-24T06:50:33;9.18;;;8.35;;
9228;SDS011;4649;42.644;23.284;2023-06-24T06:53:22;9.35;;;8.40;;
9228;SDS011;4649;42.644;23.284;2023-06-24T06:56:04;10.75;;;7.95;;
9228;SDS011;4649;42.644;23.284;2023-06-24T06:58:32;10.05;;;7.82;;
9228;SDS011;4649;42.644;23.284;2023-06-24T07:01:03;10.70;;;8.25;;
9228;SDS011;4649;42.644;23.284;2023-06-24T07:03:40;8.82;;;8.32;;
9228;SDS011;4649;42.644;23.284;2023-06-24T07:06:07;9.68;;;8.18;;
9228;SDS011;4649;42.644;23.284;2023-06-24T07:08:36;8.45;;;7.82;;
9228;SDS011;4649;42.644;23.284;2023-06-24T07:11:04;8.90;;;8.10;;
